x

9440910 - Toke Point, Wa (tokw1) Weather Station

1:30pm - Sun 23rd Apr 2017 All times are PDT. -7 hours from GMT.

  • Wind
    15mph, 21mph gusts
  • Sea Temp 53°f
  • 空気 Temp 49°f
  • Sea Pressure 1011.2mb
  • 9440910 - Toke Point, Wa
  • 9440910 - Toke Point, Wa

More Historic Weather Station data

Upgrade to MSW Pro to gain access to the past 30 days of data for over 8000 Wavebouys and Weather Stations around the globe.

Join Pro

Comparision Forecast

View Surf forecast
   
Sun 04/23 1:30pm 15 21 mph 1011.2mb 53f 49f
1:24pm 17 22 mph 1011.2mb 53f 49f
1:18pm 16 23 mph 1011.2mb 53f 49f
1:12pm 15 21 mph 1011.2mb 53f 49f
1:06pm 14 23 mph 1011.1mb 53f 49f
1:00pm 14 18 mph 1011.1mb 53f 50f
12:54pm 13 18 mph 1011mb 53f 50f
12:48pm 15 18 mph 1011.1mb 53f 49f
12:42pm 13 17 mph 1011mb 53f 50f
12:36pm 13 20 mph 1011mb 53f 50f
12:30pm 11 18 mph 1010.9mb 53f 50f
12:24pm 17 24 mph 1010.9mb 53f 49f
12:18pm 14 21 mph 1010.8mb 53f 50f
12:12pm 15 23 mph 1010.8mb 53f 49f
12:06pm 13 17 mph 1010.9mb 53f 51f
12:00pm 14 21 mph 1010.8mb 53f 50f
11:54am 13 18 mph 1010.9mb 53f 50f
11:48am 14 17 mph 1010.9mb 53f 50f
11:42am 14 18 mph 1010.9mb 53f 50f
11:36am 14 22 mph 1011mb 53f 50f
11:30am 17 23 mph 1010.9mb 53f 51f
11:24am 17 21 mph 1010.9mb 53f 51f
11:18am 15 20 mph 1010.9mb 53f 51f
11:12am 15 22 mph 1010.9mb 53f 51f
11:06am 16 23 mph 1010.9mb 53f 51f
11:00am 20 22 mph 1010.9mb 53f 50f
10:54am 16 21 mph 1011mb 53f 51f
10:48am 16 22 mph 1011mb 53f 51f
10:42am 18 22 mph 1010.9mb 53f 51f
10:36am 13 18 mph 1011mb 53f 50f
10:30am 13 20 mph 1011mb 53f 51f
10:24am 16 22 mph 1011mb 53f 51f
10:18am 16 21 mph 1011mb 53f 50f
10:12am 16 22 mph 1010.9mb 53f 50f
10:06am 17 20 mph 1010.9mb 53f 50f
10:00am 13 15 mph 1010.8mb 53f 49f
9:54am 10 13 mph 1010.9mb 53f 49f
9:48am 13 15 mph 1010.9mb 53f 49f
9:42am 11 15 mph 1010.9mb 53f 49f
9:36am 14 18 mph 1010.9mb 53f 49f
9:30am 14 21 mph 1010.9mb 53f 50f
9:24am 18 21 mph 1010.8mb 53f 50f
9:18am 18 22 mph 1010.8mb 53f 50f
9:12am 15 17 mph 1010.7mb 53f 50f
9:06am 11 15 mph 1010.8mb 53f 50f
9:00am 10 14 mph 1010.9mb 53f 49f
8:54am 11 14 mph 1010.9mb 53f 49f
8:48am 13 14 mph 1010.9mb 53f 49f
8:42am 13 14 mph 1010.9mb 53f 49f
8:36am 13 14 mph 1011mb 53f 49f
8:30am 13 14 mph 1011mb 53f 49f
8:24am 11 13 mph 1011.1mb 53f 49f
8:18am 10 13 mph 1011.2mb 53f 49f
8:12am 9 11 mph 1011.3mb 53f 49f
8:06am 10 13 mph 1011.4mb 53f 49f
8:00am 10 11 mph 1011.4mb 53f 49f
7:54am 10 11 mph 1011.4mb 53f 49f
7:48am 10 11 mph 1011.5mb 53f 49f
7:42am 9 11 mph 1011.5mb 53f 49f
7:36am 10 11 mph 1011.6mb 53f 49f
7:30am 9 11 mph 1011.6mb 53f 49f
7:24am 9 10 mph 1011.7mb 53f 49f
7:18am 9 11 mph 1011.8mb 53f 49f
7:12am 9 13 mph 1011.8mb 53f 49f
7:06am 10 11 mph 1011.8mb 53f 49f
7:00am 9 10 mph 1011.9mb 53f 49f
6:54am 9 10 mph 1011.9mb 53f 49f
6:48am 9 10 mph 1012mb 53f 49f
6:42am 9 10 mph 1012mb 53f 49f
6:36am 9 11 mph 1012mb 53f 49f
6:30am 9 10 mph 1012mb 53f 49f
6:24am 9 10 mph 1012.1mb 53f 49f
6:18am 9 10 mph 1012.1mb 53f 49f
6:12am 8 10 mph 1012.2mb 53f 49f
6:06am 9 10 mph 1012.2mb 53f 49f
6:00am 8 10 mph 1012.3mb 53f 49f
5:54am 8 10 mph 1012.4mb 53f 49f
5:48am 8 10 mph 1012.4mb 53f 49f
5:42am 8 10 mph 1012.5mb 53f 49f
5:36am 8 9 mph 1012.5mb 53f 49f
5:30am 8 9 mph 1012.6mb 53f 49f
5:24am 8 9 mph 1012.6mb 53f 49f
5:18am 8
mph
1012.6mb 53f 49f
5:12am 7 9 mph 1012.8mb 53f 49f
5:06am 7 9 mph 1012.8mb 53f 50f
5:00am 8 9 mph 1012.8mb 53f 50f
4:54am 9 10 mph 1012.8mb 53f 49f
4:48am 8 10 mph 1012.8mb 53f 50f
4:42am 9 13 mph 1012.8mb 53f 50f
4:36am 10 13 mph 1012.9mb 53f 50f
4:30am 9 13 mph 1013mb 53f 50f
4:24am 13 14 mph 1013.1mb 53f 50f
4:18am 13 15 mph 1013.1mb 53f 50f
4:12am 10 11 mph 1013.1mb 53f 50f
4:06am 9 10 mph 1013.2mb 53f 50f
4:00am 8 9 mph 1013.3mb 53f 50f
3:54am 7 8 mph 1013.3mb 53f 50f
3:48am 7 10 mph 1013.4mb 53f 50f
3:42am 8 10 mph 1013.5mb 53f 50f
3:36am 10 11 mph 1013.6mb 53f 50f
3:30am 10 11 mph 1013.6mb 53f 50f
3:24am 8 10 mph 1013.6mb 53f 50f
3:18am 9 10 mph 1013.7mb 53f 50f
3:12am 9 10 mph 1013.8mb 53f 50f
3:06am 9 10 mph 1013.9mb 53f 50f
3:00am 9 10 mph 1014mb 53f 50f
2:54am 9 11 mph 1014mb 53f 50f
2:48am 9 10 mph 1014.1mb 53f 50f
2:42am 8 10 mph 1014.1mb 53f 50f
2:36am 8 10 mph 1014.1mb 53f 50f
2:30am 10 11 mph 1014.2mb 53f 50f
2:24am 9 10 mph 1014.3mb 53f 50f
2:18am 9 10 mph 1014.3mb 53f 50f
2:12am 9 11 mph 1014.4mb 53f 50f
2:06am 10 14 mph 1014.4mb 53f 51f
2:00am 11 14 mph 1014.4mb 53f 51f
1:54am 14 16 mph 1014.4mb 53f 51f
1:48am 10 13 mph 1014.5mb 53f 51f
1:42am 10 14 mph 1014.5mb 53f 51f
1:36am 11 15 mph 1014.5mb 53f 51f
1:30am 11 15 mph 1014.5mb 53f 51f
1:24am 13 15 mph 1014.5mb 53f 51f
1:18am 11 15 mph 1014.5mb 53f 51f
1:12am 11 15 mph 1014.5mb 53f 51f
1:06am 11 15 mph 1014.6mb 53f 51f
1:00am 11 15 mph 1014.6mb 53f 51f
12:54am 11 16 mph 1014.6mb 53f 51f
12:48am 13 16 mph 1014.6mb 53f 51f
12:42am 10 15 mph 1014.6mb 53f 51f
12:36am 10 15 mph 1014.6mb 53f 51f
12:30am 9 14 mph 1014.6mb 53f 51f
12:24am 13 17 mph 1014.6mb 53f 51f
12:18am 10 14 mph 1014.6mb 53f 51f
12:12am 11 16 mph 1014.6mb 53f 51f
12:06am 11 14 mph 1014.6mb 53f 51f
12:00am 11 15 mph 1014.7mb 53f 51f
Sat 04/22 11:54pm 10 15 mph 1014.7mb 53f 51f
11:48pm 10 14 mph 1014.7mb 53f 51f
11:42pm 10 14 mph 1014.7mb 53f 51f
11:36pm 8 14 mph 1014.8mb 53f 51f
11:30pm 9 13 mph 1014.8mb 53f 51f
11:24pm 10 16 mph 1014.7mb 53f 51f
11:18pm 13 16 mph 1014.7mb 53f 51f
11:12pm 14 18 mph 1014.7mb 53f 51f
11:06pm 14 17 mph 1014.7mb 53f 52f
11:00pm 13 17 mph 1014.6mb 53f 51f
10:54pm 13 16 mph 1014.7mb 53f 51f
10:48pm 11 15 mph 1014.8mb 53f 51f
10:42pm 11 18 mph 1014.8mb 53f 51f
10:36pm 13 17 mph 1014.8mb 53f 51f
10:30pm 14 18 mph 1014.8mb 53f 51f
10:24pm 13 18 mph 1014.8mb 53f 51f
10:18pm 14 18 mph 1014.8mb 53f 52f
10:12pm 13 16 mph 1014.9mb 53f 52f
10:06pm 13 18 mph 1014.9mb 53f 52f
10:00pm 10 20 mph 1014.9mb 53f 52f
9:54pm 14 17 mph 1014.9mb 53f 52f
9:48pm 8 13 mph 1014.9mb 53f 51f
9:42pm 10 17 mph 1014.9mb 53f 51f
9:36pm 14 20 mph 1014.9mb 53f 52f
9:30pm 15 20 mph 1014.8mb 53f 52f
9:24pm 14 20 mph 1014.7mb 53f 52f
9:18pm 16 24 mph 1014.6mb 53f 52f
9:12pm 17 22 mph 1014.5mb 53f 52f
9:06pm 17 22 mph 1014.6mb 54f 52f
9:00pm 15 22 mph 1014.5mb 54f 52f
8:54pm 14 22 mph 1014.5mb 54f 52f
8:48pm 13 20 mph 1014.4mb 54f 52f
8:42pm 11 17 mph 1014.4mb 54f 52f
8:36pm 13 20 mph 1014.3mb 54f 52f
8:30pm 13 18 mph 1014.3mb 54f 52f
8:24pm 13 21 mph 1014.3mb 54f 52f
8:18pm 15 20 mph 1014.3mb 54f 52f
8:12pm 14 21 mph 1014.2mb 54f 52f
8:06pm 13 17 mph 1014.2mb 54f 52f
8:00pm 14 22 mph 1014.2mb 54f 52f
7:54pm 14 21 mph 1014.1mb 54f 52f
7:48pm 15 24 mph 1014.2mb 54f 52f
7:42pm 16 21 mph 1014.1mb 54f 53f
7:36pm 16 24 mph 1014.1mb 54f 53f
7:30pm 16 23 mph 1014.1mb 54f 53f
7:24pm 16 24 mph 1014mb 54f 53f
7:18pm 13 18 mph 1014mb 54f 52f
7:12pm 16 23 mph 1014mb 54f 53f
7:06pm 16 23 mph 1013.9mb 54f 53f
7:00pm 21 25 mph 1013.9mb 55f 53f
6:54pm 16 22 mph 1014mb 55f 53f
6:48pm 17 23 mph 1013.9mb 55f 53f
6:42pm 15 24 mph 1013.9mb 55f 53f
6:36pm 15 22 mph 1014mb 55f 53f
6:30pm 15 25 mph 1014mb 55f 53f
6:24pm 16 24 mph 1014mb 55f 53f
6:18pm 16 21 mph 1014mb 55f 53f
6:12pm 15 22 mph 1014mb 55f 53f
6:06pm 16 23 mph 1014mb 55f 53f
6:00pm 18 25 mph 1014mb 55f 53f
5:48pm 11 21 mph 1014mb 55f 53f
5:42pm 16 23 mph 1014mb 55f 53f
5:36pm 15 23 mph 1014mb 55f 53f
5:30pm 17 24 mph 1013.9mb 55f 53f
5:24pm 16 26 mph 1014mb 55f 53f
5:18pm 21 30 mph 1013.9mb 55f 53f
5:12pm 20 26 mph 1013.9mb 55f 53f
5:06pm 18 32 mph 1013.9mb 55f 53f
5:00pm 18 29 mph 1013.9mb 54f 53f
4:48pm 17 24 mph - - -
4:42pm 17 23 mph 1013.7mb 54f 53f
4:36pm 16 28 mph 1013.6mb 54f 53f
4:30pm 18 26 mph 1013.5mb 54f 54f
4:24pm 17 26 mph 1013.5mb 54f 54f
4:00pm 17 25 mph 1013.4mb 54f 54f
3:48pm 16 23 mph 1013.2mb 54f 54f
3:42pm 17 24 mph 1013.1mb 54f 53f
3:24pm 21 29 mph 1013mb 54f 53f
3:18pm 15 23 mph 1013mb 54f 54f
3:12pm 15 23 mph 1012.9mb 54f 54f
3:06pm 17 24 mph 1012.8mb 54f 54f
3:00pm 16 26 mph 1012.8mb 54f 53f
2:54pm 17 29 mph 1012.7mb 54f 53f
2:48pm 17 26 mph 1012.6mb 54f 53f
2:42pm 17 24 mph 1012.5mb 54f 53f
2:36pm 17 28 mph 1012.4mb 54f 53f
2:30pm 15 24 mph 1012.3mb 54f 53f
2:24pm 21 26 mph 1012.2mb 54f 53f
2:18pm 18 24 mph 1012.1mb 54f 53f
2:12pm 22 28 mph 1012mb 54f 53f
2:06pm 16 29 mph 1011.9mb 54f 53f
2:00pm 21 31 mph 1011.7mb 54f 53f
1:54pm 23 30 mph 1011.6mb 54f 53f
1:48pm 21 26 mph 1011.4mb 54f 53f
1:42pm 20 28 mph 1011.2mb 54f 53f
1:36pm 18 26 mph 1011.1mb 53f 53f
1:30pm 20 32 mph 1010.8mb 53f 53f
1:24pm 20 29 mph 1010.7mb 53f 53f
1:18pm 20 32 mph 1010.5mb 53f 52f
1:12pm 16 29 mph 1010.3mb 53f 52f
1:06pm 18 25 mph 1010.2mb 54f 52f
1:00pm 18 26 mph 1010.1mb 53f 53f
12:54pm 20 22 mph 1010mb 53f 51f
12:48pm 15 21 mph 1009.9mb 53f 51f
12:42pm 17 21 mph 1009.7mb 53f 51f
12:36pm 15 20 mph 1009.6mb 53f 51f
12:30pm 16 23 mph 1009.4mb 53f 52f
12:24pm 16 22 mph 1009.4mb 53f 52f
12:18pm 17 22 mph 1009.3mb 53f 53f
12:12pm 17 21 mph 1009.3mb 53f 53f
12:06pm 14 16 mph 1009.1mb 53f 52f
12:00pm 13 17 mph 1009mb 53f 52f
11:54am 15 17 mph 1009.1mb 53f 53f
11:48am 10 14 mph 1009mb 53f 52f
11:42am 10 16 mph 1009.1mb 53f 52f
11:36am 8 14 mph 1009.2mb 53f 52f
11:30am 13 16 mph 1009.4mb 53f 52f
11:24am 15 18 mph 1009.3mb 53f 52f
11:18am 15 16 mph 1009.2mb 53f 52f
11:12am 9 13 mph 1009.2mb 53f 52f
11:06am 10 14 mph 1009.2mb 53f 51f
11:00am 9 11 mph 1009.3mb 53f 51f
10:54am 9 13 mph 1009.3mb 53f 50f
10:48am 9 10 mph 1009.2mb 53f 50f
10:42am 9 11 mph 1009.2mb 53f 50f
10:36am 9 11 mph 1009.2mb 53f 50f
10:30am 10 13 mph 1009.2mb 53f 50f
10:24am 11 13 mph 1009.2mb 53f 50f
10:18am 10 13 mph 1009.2mb 53f 50f
10:12am 9 11 mph 1009.1mb 53f 50f
10:06am 8 9 mph 1009.2mb 53f 51f
10:00am 8 9 mph 1009.1mb 53f 50f
9:54am 8 10 mph 1009mb 53f 50f
9:48am 10 11 mph 1008.8mb 53f 50f
9:42am 9 11 mph 1008.8mb 53f 50f
9:36am 9 10 mph 1009.1mb 53f 50f
9:30am 8 10 mph 1009.1mb 53f 50f
9:24am 9 11 mph 1009.2mb 53f 50f
9:18am 9 13 mph 1009.2mb 53f 50f
9:12am 11 15 mph 1009.2mb 53f 51f
9:06am 13 14 mph 1009.3mb 53f 51f
9:00am 9 16 mph 1009.2mb 53f 51f
8:54am 15 17 mph 1009.2mb 53f 51f
8:48am 8 13 mph 1009.3mb 53f 50f
8:42am 9 13 mph 1009.3mb 53f 50f
8:36am 13 14 mph 1009.3mb 53f 50f
8:30am 11 14 mph 1009.3mb 53f 50f
8:24am 14 17 mph 1009.5mb 53f 50f
8:18am 14 17 mph 1009.4mb 53f 50f
8:12am 15 18 mph 1009.1mb 53f 51f
8:06am 15 20 mph 1009.5mb 53f 51f
8:00am 15 20 mph 1009.4mb 53f 52f
7:54am 14 18 mph 1009.6mb 53f 52f
7:48am 10 18 mph 1009.8mb 53f 52f
7:42am 13 17 mph 1009.7mb 53f 52f
7:36am 11 17 mph 1009.6mb 53f 53f
7:30am 13 16 mph 1009.4mb 53f 53f
7:24am 11 16 mph 1009.3mb 53f 54f
7:18am 14 18 mph 1009.4mb 53f 54f
7:12am 13 20 mph 1009.4mb 54f 54f
7:06am 14 17 mph 1009.2mb 54f 55f
7:00am 13 17 mph 1008.9mb 54f 55f
6:54am 9 15 mph 1008.7mb 54f 56f
6:48am 11 17 mph 1008.6mb 54f 56f
6:42am 10 13 mph 1008.4mb 54f 57f
6:36am 8 11 mph 1008.3mb 54f 57f
6:30am 7 9 mph 1008.1mb 54f 56f
6:24am 7 9 mph 1007.8mb 54f 56f
6:18am 7 8 mph 1007.7mb 54f 56f
6:12am 6 9 mph 1007.6mb 55f 56f
6:06am 6 8 mph 1007.5mb 55f 56f
6:00am 6 8 mph 1007.4mb 55f 56f
5:48am 9 11 mph 1007.1mb 54f 57f
5:42am 11 14 mph 1006.9mb 55f 57f
5:36am 11 13 mph 1006.8mb 55f 56f
5:30am 11 14 mph 1006.7mb 55f 56f
5:24am 13 14 mph 1006.7mb 55f 57f
5:18am 11 13 mph 1006.8mb 55f 56f
5:12am 10 13 mph 1006.8mb 55f 56f
5:06am 10 13 mph 1006.8mb 55f 57f
5:00am 11
mph
1007mb 55f 57f
4:54am 9 10 mph 1007.3mb 55f 56f
4:48am 10 13 mph 1007.4mb 55f 56f
4:42am 11 14 mph 1007.3mb 55f 56f
4:36am 13 14 mph 1007.3mb 55f 56f
4:30am 10 15 mph 1007.4mb 55f 56f
4:24am 11 17 mph 1007.4mb 55f 56f
4:18am 15 18 mph 1007.3mb 55f 57f
4:12am 15 17 mph 1007.3mb 55f 57f
4:06am 14 17 mph 1007.6mb 55f 57f
4:00am 15 17 mph 1007.8mb 55f 57f
3:54am 14 16 mph 1008.1mb 55f 57f
3:48am 15 16 mph 1008mb 55f 57f
3:42am 14 17 mph 1008.1mb 55f 57f
3:36am 15 17 mph 1008.3mb 55f 58f
3:30am 14 16 mph 1008.5mb 55f 58f
3:24am 13 15 mph 1008.5mb 55f 58f
3:18am 14 16 mph 1008.6mb 55f 58f
3:12am 14 15 mph 1008.7mb 55f 58f
3:06am 15 16 mph 1008.7mb 55f 58f
3:00am 14 17 mph 1008.9mb 55f 58f
2:54am 14 16 mph 1009mb 55f 58f
2:48am 14 16 mph 1009.1mb 55f 58f
2:42am 13 16 mph 1009.3mb 55f 58f
2:36am 14 17 mph 1009.4mb 55f 58f
2:30am 14 16 mph 1009.5mb 54f 59f
2:24am 15 17 mph 1009.6mb 54f 59f
2:18am 13 17 mph 1009.8mb 54f 59f
2:12am 14 17 mph 1009.8mb 54f 59f
2:06am 15 17 mph 1010mb 55f 60f
2:00am 13 15 mph 1010.2mb 54f 59f
1:54am 11 15 mph 1010.2mb 54f 59f
1:48am 10 13 mph 1010.5mb 54f 59f
1:42am 10 14 mph 1010.7mb 54f 59f
1:36am 13 15 mph 1010.8mb 54f 59f
1:30am 11 14 mph 1010.8mb 54f 58f
1:24am 10 11 mph 1010.9mb 54f 58f
1:18am 11 14 mph 1010.9mb 54f 58f
1:12am 13 15 mph 1011mb 54f 59f
1:06am 13 15 mph 1011.1mb 54f 59f
1:00am 10 13 mph 1011.1mb 53f 58f
12:54am 13 16 mph 1011.2mb 54f 59f
12:48am 14 16 mph 1011.1mb 54f 59f
12:42am 16 18 mph 1011.2mb 54f 59f
12:36am 14 15 mph 1011.5mb 54f 59f
12:30am 13 15 mph 1011.6mb 54f 59f
12:24am 14 15 mph 1011.7mb 54f 59f
12:18am 14 16 mph 1011.7mb 54f 59f
12:12am 14 16 mph 1011.8mb 53f 59f
12:06am 14 16 mph 1011.9mb 53f 59f
12:00am 15 17 mph 1012mb 53f 59f
Fri 04/21 11:54pm 15 20 mph 1012mb 53f 59f
11:48pm 16 22 mph 1012mb 53f 59f
11:42pm 17 20 mph 1011.9mb 53f 59f
11:36pm 17 21 mph 1012mb 53f 59f
11:30pm 17 21 mph 1012.2mb 53f 59f
11:24pm 17 20 mph 1012.4mb 53f 59f
11:18pm 15 20 mph 1012.5mb 53f 59f
11:12pm 17 18 mph 1012.6mb 53f 59f
11:06pm 17 20 mph 1012.7mb 53f 59f
11:00pm 17 18 mph 1012.9mb 53f 59f
10:54pm 16 18 mph 1013mb 53f 58f
10:48pm 15 16 mph 1013.1mb 53f 58f
10:42pm 14 16 mph 1013.4mb 53f 58f
10:36pm 13 15 mph 1013.6mb 53f 58f
10:30pm 14 15 mph 1013.7mb 53f 58f
10:24pm 13 15 mph 1013.8mb 53f 58f
10:18pm 13 15 mph 1013.9mb 53f 58f
10:12pm 13 15 mph 1013.9mb 53f 58f
10:06pm 14 15 mph 1013.9mb 53f 58f
10:00pm 14 17 mph 1013.9mb 53f 58f
9:54pm 15 17 mph 1013.9mb 53f 58f
9:48pm 16 17 mph 1014mb 53f 59f
9:42pm 14 17 mph 1014.2mb 53f 58f
9:36pm 15 17 mph 1014.4mb 53f 59f
9:30pm 15 17 mph 1014.4mb 53f 59f
9:24pm 15 18 mph 1014.4mb 53f 59f
9:18pm 15 17 mph 1014.5mb 53f 59f
9:12pm 14 16 mph 1014.6mb 53f 59f
9:06pm 14 17 mph 1014.8mb 53f 59f
9:00pm 13 15 mph 1014.9mb 53f 59f
8:54pm 14 15 mph 1014.9mb 53f 60f
8:48pm 14 15 mph 1015.1mb 53f 60f
8:42pm 15 16 mph 1015.1mb 53f 60f
8:36pm 14 17 mph 1015.2mb 53f 60f
8:30pm 14 16 mph 1015.3mb 53f 60f
8:24pm 15 16 mph 1015.4mb 53f 61f
8:18pm 15 16 mph 1015.4mb 53f 61f
8:12pm 14 16 mph 1015.6mb 53f 60f
8:06pm 11 13 mph 1015.9mb 53f 60f
8:00pm 13 16 mph 1015.9mb 53f 61f
7:54pm 13 16 mph 1016mb 53f 62f
7:48pm 14 15 mph 1016mb 53f 62f
7:42pm 14 20 mph 1016mb 53f 62f
7:36pm 15 20 mph 1016.2mb 53f 63f
7:30pm 15 20 mph 1016.3mb 53f 62f
7:24pm 13 16 mph 1016.4mb 54f 62f
7:18pm 14 16 mph 1016.4mb 54f 62f
7:12pm 15 18 mph 1016.5mb 53f 62f
7:06pm 15 17 mph 1016.6mb 54f 62f
7:00pm 15 16 mph 1016.7mb 54f 62f
6:54pm 14 17 mph 1017mb 55f 62f
6:48pm 15 20 mph 1017.1mb 56f 62f
6:42pm 16 18 mph 1017.2mb 56f 63f
6:36pm 16 18 mph 1017.3mb 56f 63f
6:30pm 16 18 mph 1017.4mb 58f 63f
6:24pm 16 21 mph 1017.4mb 58f 63f
6:18pm 17 20 mph 1017.5mb 58f 63f
6:12pm 16 21 mph 1017.5mb 59f 63f
6:06pm 17 22 mph 1017.7mb 59f 63f
6:00pm 16 18 mph 1017.7mb 59f 64f
5:48pm 17 20 mph 1017.8mb 59f 64f
5:42pm 16 18 mph 1018mb 59f 64f
5:36pm 15 20 mph 1018.1mb 59f 65f
5:30pm 14 18 mph 1018.2mb 60f 64f
5:24pm 13 16 mph 1018.3mb 60f 65f
5:18pm 14 16 mph 1018.4mb 60f 64f
5:12pm 13 14 mph 1018.6mb 60f 64f
5:06pm 11 13 mph 1018.7mb 59f 64f
5:00pm 10 15 mph 1018.9mb 59f 64f
4:48pm 15 18 mph 1018.9mb 59f 64f
4:42pm 15 17 mph 1019mb 59f 64f
4:36pm 13 16 mph 1019.1mb 58f 64f
4:30pm 14 17 mph 1019.2mb 58f 64f
4:24pm 15 17 mph 1019.3mb 58f 64f
4:00pm 18 21 mph 1019.6mb 57f 64f
3:54pm 17 21 mph 1019.7mb 57f 63f
3:48pm 17 22 mph 1019.8mb 57f 63f
3:42pm 16 20 mph 1019.9mb 57f 63f
3:36pm 14 18 mph 1020.1mb 57f 63f
3:30pm 17 22 mph 1020.3mb 57f 63f
3:24pm 16 20 mph 1020.4mb 56f 63f
3:18pm 17 21 mph 1020.4mb 56f 62f
3:12pm 16 21 mph 1020.6mb 56f 62f
3:06pm 15 16 mph 1020.8mb 56f 62f
3:00pm 15 20 mph 1020.9mb 56f 62f
2:48pm 16 18 mph 1021.2mb 56f 61f
2:42pm 16 20 mph 1021.4mb 56f 61f
2:36pm 16 20 mph 1021.5mb 56f 61f
2:30pm 18 22 mph 1021.7mb 55f 60f
2:24pm 17 20 mph 1021.8mb 55f 60f
2:18pm 14 18 mph 1021.9mb 55f 60f
2:12pm 17 21 mph 1022mb 55f 60f
2:06pm 18 22 mph 1022.2mb 55f 60f
2:00pm 14 18 mph 1022.3mb 55f 59f
1:54pm 14 18 mph 1022.5mb 55f 59f
1:48pm 14 21 mph 1022.7mb 55f 59f
1:42pm 16 20 mph 1022.7mb 55f 59f
1:36pm 16 20 mph 1022.9mb 55f 59f
1:30pm 14 21 mph 1023mb 55f 58f
1:24pm 17 22 mph 1023.2mb 55f 58f
1:18pm 15 16 mph 1023.3mb 55f 58f
1:12pm 13 16 mph 1023.5mb 54f 58f
1:06pm 14 17 mph 1023.5mb 55f 57f
1:00pm 14 18 mph 1023.6mb 55f 57f
12:54pm 16 18 mph 1023.7mb 55f 57f
12:48pm 14 21 mph 1023.7mb 55f 56f
12:42pm 18 22 mph 1023.9mb 55f 56f
12:36pm 18 20 mph 1024mb 54f 56f
12:30pm 16 20 mph 1024.2mb 54f 56f
12:24pm 16 20 mph 1024.2mb 54f 56f
12:18pm 17 20 mph 1024.3mb 54f 56f
12:12pm 16 22 mph 1024.4mb 54f 56f
12:06pm 16 20 mph 1024.5mb 53f 55f
12:00pm 16 20 mph 1024.6mb 53f 55f
11:54am 17 21 mph 1024.7mb 54f 55f
11:48am 15 20 mph 1024.7mb 53f 55f
11:42am 15 20 mph 1024.9mb 53f 55f
11:36am 15 17 mph 1025.1mb 53f 55f
11:30am 13 17 mph 1025.2mb 53f 54f
11:24am 13 16 mph 1025.3mb 53f 54f
11:18am 10 13 mph 1025.6mb 53f 54f
11:12am 10 14 mph 1025.8mb 53f 54f
11:06am 11 14 mph 1025.9mb 53f 54f
11:00am 11 15 mph 1026mb 53f 53f
10:54am 10 14 mph 1026.2mb 53f 53f
10:48am 14 17 mph 1026.2mb 53f 53f
10:42am 15 17 mph 1026.3mb 53f 52f
10:36am 13 14 mph 1026.4mb 53f 52f
10:30am 11 15 mph 1026.7mb 53f 52f
10:24am 13 15 mph 1026.7mb 53f 51f
10:18am 14 15 mph 1026.8mb 53f 51f
10:12am 13 15 mph 1026.9mb 53f 51f
10:06am 13 14 mph 1027mb 53f 50f
10:00am 13 14 mph 1027.1mb 53f 50f
9:54am 13 14 mph 1027.3mb 53f 50f
9:48am 11 13 mph 1027.4mb 53f 50f
9:42am 10 11 mph 1027.5mb 53f 49f
9:36am 10 13 mph 1027.7mb 53f 49f
9:30am 10 13 mph 1027.7mb 53f 49f
9:24am 10 13 mph 1027.8mb 53f 49f
9:18am 11 13 mph 1027.9mb 53f 48f
9:12am 11 14 mph 1028mb 53f 48f
9:06am 14 15 mph 1028.1mb 53f 48f
9:00am 13 15 mph 1028.1mb 53f 48f
8:54am 14 15 mph 1028.1mb 53f 47f
8:48am 14 15 mph 1028.2mb 53f 47f
8:42am 13 15 mph 1028.3mb 53f 47f
8:36am 11 14 mph 1028.4mb 53f 47f
8:30am 13 14 mph 1028.4mb 53f 46f
8:24am 13 14 mph 1028.4mb 53f 46f
8:18am 14 15 mph 1028.5mb 53f 47f
8:12am 13 15 mph 1028.6mb 53f 46f
8:06am 13 14 mph 1028.6mb 53f 46f
8:00am 13 14 mph 1028.6mb 53f 46f
7:54am 10 14 mph 1028.7mb 53f 46f
7:48am 11 13 mph 1028.7mb 53f 46f
7:42am 11 13 mph 1028.7mb 53f 46f
7:36am 11 14 mph 1028.7mb 53f 46f
7:30am 10 13 mph 1028.8mb 53f 46f
7:24am 11 14 mph 1028.7mb 53f 46f
7:18am 13 14 mph 1028.7mb 53f 45f
7:12am 13 15 mph 1028.7mb 53f 46f
7:06am 13 15 mph 1028.7mb 53f 45f
7:00am 14 15 mph 1028.7mb 53f 45f
6:30am 10 13 mph 1029mb 53f 46f
6:24am 10 13 mph 1029mb 53f 45f
6:18am 11 14 mph 1029mb 53f 45f
6:12am 13 14 mph 1029mb 53f 45f
6:06am 9 13 mph 1029mb 53f 46f
6:00am 10 11 mph 1029mb 53f 46f
5:54am 10 11 mph 1028.9mb 53f 46f
5:48am 9 13 mph 1028.9mb 53f 46f
5:42am 9 10 mph 1028.9mb 53f 46f
5:36am 9 11 mph 1028.9mb 53f 46f
5:30am 10 11 mph 1028.9mb 53f 46f
5:24am 10 13 mph 1029mb 53f 46f
5:18am 10 14 mph 1029mb 53f 46f
5:12am 11 13 mph 1029.1mb 53f 46f
5:06am 8 9 mph 1029.1mb 53f 47f
5:00am 8 9 mph 1029.1mb 53f 47f
4:54am 8 10 mph 1029.2mb 53f 46f
4:48am 9 11 mph 1029.2mb 53f 47f
4:42am 7 8 mph 1029.3mb 53f 47f
4:36am 7 8 mph 1029.3mb 53f 47f
4:30am 6 8 mph 1029.3mb 53f 47f
4:24am 7 8 mph 1029.3mb 53f 47f
4:18am 6 7 mph 1029.3mb 53f 47f
4:12am 6 7 mph 1029.3mb 53f 47f
4:06am 7 8 mph 1029.3mb 53f 48f
4:00am 7
mph
1029.3mb 53f 48f
3:54am 6
mph
1029.4mb 53f 48f
3:48am 6 7 mph 1029.4mb 53f 48f
3:42am 6
mph
1029.5mb 53f 48f
3:36am 6 8 mph 1029.5mb 53f 48f
3:30am 7 8 mph 1029.5mb 53f 48f
3:24am 6 7 mph 1029.6mb 53f 49f
3:18am 6 7 mph 1029.6mb 53f 49f
3:12am 5 6 mph 1029.5mb 53f 49f
3:06am 5 6 mph 1029.6mb 53f 49f
3:00am 6 7 mph 1029.7mb 53f 50f
2:54am 6 7 mph 1029.7mb 53f 50f
2:48am 6 8 mph 1029.8mb 53f 50f
2:42am 7 8 mph 1029.8mb 53f 50f
2:36am 7 9 mph 1029.9mb 53f 50f
2:30am 8 9 mph 1029.9mb 53f 50f
2:24am 7 8 mph 1030mb 53f 50f
2:18am 7 9 mph 1030.1mb 53f 50f
2:12am 8 9 mph 1030.1mb 53f 50f
2:06am 7 8 mph 1030.1mb 53f 50f
2:00am 7 8 mph 1030.1mb 53f 50f
1:54am 6 7 mph 1030.1mb 53f 50f
1:48am 6 7 mph 1030.1mb 53f 50f
1:42am 5 7 mph 1030.2mb 53f 50f
1:36am 6 7 mph 1030.1mb 53f 50f
1:30am 6 7 mph 1030.2mb 53f 50f
1:24am 6 7 mph 1030.2mb 53f 51f
1:18am 6 7 mph 1030.3mb 53f 51f
1:12am 3 5 mph 1030.2mb 53f 50f
1:06am 3 5 mph 1030.2mb 53f 50f
1:00am 3 6 mph 1030.1mb 53f 50f
12:54am 2 3 mph 1030.1mb 53f 50f
12:48am 2 3 mph 1030.1mb 53f 50f
12:42am 2 3 mph 1030.1mb 53f 50f
12:36am 2 3 mph 1030.1mb 53f 50f
12:30am 2 3 mph 1030.1mb 53f 50f
12:24am 3 5 mph 1030.1mb 53f 50f
12:18am 5 6 mph 1030.1mb 53f 50f
12:12am 5 6 mph 1030.1mb 53f 49f
12:06am 5 6 mph 1030.1mb 53f 49f
12:00am 3 6 mph 1030.1mb 53f 50f
Thu 04/20 11:54pm 6 7 mph 1030.1mb 53f 50f
11:48pm 5 6 mph 1030.1mb 53f 50f
11:42pm 3 6 mph 1030.1mb 53f 50f
11:36pm 5 6 mph 1030.1mb 53f 50f
11:30pm 6 9 mph 1030.1mb 53f 50f
11:24pm 7 10 mph 1030mb 53f 50f
11:18pm 9 11 mph 1030mb 53f 50f
11:12pm 6 9 mph 1030.1mb 53f 51f
11:06pm 6 7 mph 1030mb 53f 51f
11:00pm 5 8 mph 1030mb 53f 51f
10:54pm 7 8 mph 1030.1mb 53f 51f
10:48pm 6 8 mph - - -
10:42pm 6 8 mph - - -
10:36pm 7 9 mph - - -
10:30pm 6 8 mph 1029.8mb 53f 51f
10:24pm 6 7 mph 1029.8mb 53f 51f
10:18pm 5 8 mph 1029.7mb 53f 51f
10:12pm 5 9 mph 1029.7mb 53f 51f
10:06pm 6 9 mph 1029.7mb 53f 51f
10:00pm 5 8 mph 1029.7mb 53f 51f
9:54pm 6 8 mph 1029.6mb 53f 51f
9:48pm 8 10 mph 1029.5mb 53f 51f
9:42pm 8 10 mph 1029.5mb 53f 51f
9:36pm 7 9 mph 1029.4mb 53f 51f
9:30pm 7 10 mph 1029.3mb 53f 51f
9:24pm 7 11 mph 1029.2mb 53f 51f
9:18pm 7 10 mph 1029.1mb 53f 51f
9:12pm 8 11 mph 1029.1mb 53f 51f
9:06pm 9 11 mph 1029mb 53f 51f
9:00pm 8 11 mph 1028.9mb 53f 51f
8:54pm 10 14 mph 1028.9mb 53f 51f
8:48pm 10 15 mph 1028.8mb 53f 51f
8:42pm 11 14 mph 1028.7mb 53f 51f
8:36pm 10 14 mph 1028.7mb 53f 51f
8:30pm 10 13 mph 1028.6mb 53f 51f
8:24pm 10 13 mph 1028.5mb 53f 51f
8:18pm 9 13 mph 1028.5mb 53f 51f
8:12pm 10 14 mph 1028.4mb 53f 51f
8:06pm 10 14 mph 1028.4mb 53f 51f
8:00pm 9 15 mph 1028.3mb 53f 51f
7:54pm 10 13 mph 1028.3mb 53f 51f
7:48pm 10 14 mph 1028.2mb 53f 51f
7:42pm 8 13 mph 1028.1mb 53f 51f
7:36pm 9 13 mph 1028mb 53f 51f
7:30pm 10 13 mph 1028mb 53f 51f
7:24pm 7 10 mph 1027.9mb 53f 51f
7:18pm 6 10 mph 1027.9mb 53f 51f
7:12pm 7 11 mph 1027.8mb 53f 51f
7:06pm 11 15 mph 1027.7mb 53f 51f
7:00pm 13 16 mph 1027.7mb 53f 52f
6:54pm 11 14 mph 1027.7mb 53f 52f
6:48pm 9 15 mph 1027.7mb 53f 52f
6:42pm 11 15 mph 1027.7mb 53f 52f
6:36pm 10 15 mph 1027.6mb 53f 52f
6:30pm 11 14 mph 1027.6mb 53f 52f
6:24pm 11 15 mph 1027.6mb 53f 52f
6:18pm 10 14 mph 1027.6mb 53f 52f
6:12pm 10 15 mph 1027.6mb 53f 52f
6:06pm 13 16 mph 1027.5mb 53f 52f
6:00pm 11 15 mph 1027.4mb 53f 52f
5:54pm 11 16 mph 1027.4mb 54f 52f
5:48pm 10 14 mph - - -
5:42pm 11 15 mph 1027.3mb 54f 52f
5:36pm 10 14 mph 1027.3mb 54f 53f
5:30pm 10 14 mph 1027.2mb 54f 53f
5:24pm 10 13 mph 1027.2mb 54f 52f
5:18pm 9 14 mph 1027.2mb 55f 53f
5:12pm 13 15 mph 1027.2mb 55f 52f
5:06pm 9 14 mph 1027.2mb 55f 53f
5:00pm 10 14 mph 1027.1mb 55f 52f
4:54pm 10 15 mph 1027mb 55f 52f
4:48pm 10 14 mph 1027mb 55f 53f
4:42pm 11 15 mph 1026.9mb 55f 52f
4:36pm 10 16 mph 1026.9mb 55f 52f
4:30pm 14 16 mph 1026.9mb 55f 52f
4:24pm 14 16 mph 1026.8mb 55f 53f
4:18pm 13 17 mph 1026.7mb 55f 53f
4:12pm 11 16 mph 1026.7mb 55f 53f
4:06pm 14 17 mph 1026.6mb 55f 53f
4:00pm 14 17 mph 1026.5mb 55f 53f
3:54pm 15 17 mph 1026.5mb 55f 52f
3:48pm 11 16 mph 1026.4mb 55f 53f
3:42pm 13 15 mph 1026.3mb 55f 53f
3:36pm 13 16 mph 1026.3mb 55f 53f
3:30pm 13 17 mph 1026.2mb 55f 53f
3:24pm 11 15 mph 1026.2mb 55f 53f
3:18pm 11 15 mph 1026.2mb 55f 53f
3:12pm 13 17 mph 1026.1mb 55f 53f
3:06pm 13 17 mph 1026.1mb 55f 53f
3:00pm 14 20 mph 1026mb 55f 52f
2:54pm 15 21 mph 1025.9mb 55f 52f
2:48pm 13 17 mph 1025.9mb 55f 53f
2:42pm 14 18 mph 1025.8mb 54f 53f
2:36pm 16 20 mph 1025.7mb 54f 53f
2:30pm 13 17 mph 1025.6mb 54f 53f
2:24pm 13 17 mph 1025.5mb 54f 53f
2:18pm 15 20 mph 1025.4mb 54f 53f
2:12pm 14 18 mph 1025.4mb 54f 53f
2:06pm 11 16 mph 1025.3mb 54f 53f
2:00pm 11 17 mph 1025.3mb 54f 53f
1:54pm 13 17 mph 1025.2mb 54f 53f
1:48pm 11 17 mph 1025.1mb 53f 53f
1:42pm 13 16 mph 1025mb 53f 53f
1:36pm 11 16 mph 1024.9mb 53f 53f
1:30pm 14 17 mph 1024.9mb 53f 53f
1:24pm 14 17 mph 1024.9mb 53f 53f
1:18pm 10 16 mph 1024.9mb 53f 53f
1:12pm 10 17 mph 1024.8mb 53f 53f
1:06pm 11 17 mph 1024.9mb 53f 53f
1:00pm 11 17 mph 1024.8mb 53f 52f
12:54pm 14 18 mph 1024.8mb 53f 53f
12:48pm 15 20 mph 1024.7mb 53f 53f
12:42pm 9 14 mph 1024.6mb 53f 53f
12:36pm 9 15 mph 1024.6mb 53f 53f
12:30pm 10 14 mph 1024.5mb 53f 52f
12:24pm 10 14 mph 1024.4mb 53f 53f
12:18pm 13 15 mph 1024.4mb 53f 53f
12:12pm 11 16 mph 1024.2mb 53f 52f
12:06pm 13 16 mph 1024.2mb 53f 51f
12:00pm 11 16 mph 1024.2mb 53f 51f
11:54am 10 14 mph 1024.1mb 53f 51f
11:48am 11 15 mph 1024.2mb 53f 51f
11:42am 13 18 mph 1024.2mb 53f 51f
11:36am 13 15 mph 1024.1mb 53f 51f
11:30am 10 15 mph 1024.1mb 53f 51f
11:24am 11 14 mph 1024mb 53f 51f
11:18am 11 17 mph 1023.9mb 53f 51f
11:12am 11 14 mph 1023.8mb 53f 51f
11:06am 11 15 mph 1023.6mb 53f 51f
11:00am 10 14 mph 1023.6mb 53f 51f
10:54am 11 17 mph 1023.5mb 53f 50f
10:48am 14 17 mph 1023.4mb 53f 50f
10:42am 13 16 mph 1023.3mb 53f 50f
10:36am 14 16 mph 1023.2mb 53f 51f
10:30am 11 15 mph 1023.1mb 53f 51f
10:24am 14 15 mph 1023.1mb 53f 50f
10:18am 13 15 mph 1023mb 52f 50f
10:12am 13 15 mph 1022.9mb 52f 50f
10:06am 14 15 mph 1022.9mb 52f 49f
10:00am 15 18 mph 1022.8mb 52f 49f
9:54am 15 18 mph 1022.7mb 52f 49f
9:48am 14 17 mph 1022.6mb 52f 49f
9:42am 15 18 mph 1022.5mb 52f 49f
9:36am 14 16 mph 1022.4mb 52f 49f
9:30am 14 18 mph 1022.4mb 52f 50f
9:24am 14 18 mph 1022.3mb 52f 50f
9:18am 15 17 mph 1022.2mb 52f 50f
9:12am 13 15 mph 1022.1mb 52f 50f
9:06am 11 15 mph 1022mb 52f 50f
9:00am 14 16 mph 1021.9mb 52f 49f
8:54am 14 17 mph 1021.8mb 52f 49f
8:48am 14 17 mph 1021.8mb 52f 49f
8:42am 15 17 mph 1021.8mb 52f 49f
8:36am 13 16 mph 1021.8mb 52f 49f
8:30am 15 16 mph 1021.7mb 52f 49f
8:24am 15 16 mph 1021.7mb 52f 49f
8:18am 14 16 mph 1021.6mb 52f 49f
8:12am 10 13 mph 1021.6mb 52f 49f
8:06am 9 11 mph 1021.4mb 52f 49f
8:00am 10 13 mph 1021.4mb 52f 49f
7:54am 10 13 mph 1021.3mb 52f 49f
7:48am 10 14 mph 1021.2mb 52f 49f
7:42am 13 14 mph 1021.2mb 52f 48f
7:36am 13 15 mph 1021.2mb 52f 48f
7:30am 14 18 mph 1021.2mb 52f 48f
7:24am 17 20 mph 1021mb 52f 48f
7:18am 15 18 mph 1021mb 52f 48f
7:12am 17 20 mph 1021mb 52f 49f
7:06am 17 21 mph 1020.8mb 52f 49f
7:00am 17 21 mph 1020.8mb 52f 49f
6:54am 15 18 mph 1020.7mb 52f 49f
6:48am 14 17 mph 1020.7mb 53f 49f
6:42am 14 16 mph 1020.6mb 53f 49f
6:36am 14 16 mph 1020.5mb 53f 49f
6:30am 13 16 mph 1020.4mb 53f 49f
6:24am 14 17 mph 1020.3mb 53f 49f
6:18am 15 17 mph 1020.3mb 53f 49f
6:12am 15 18 mph 1020.2mb 53f 49f
6:06am 16 20 mph 1020.1mb 53f 49f
6:00am 16 18 mph 1020.1mb 53f 49f
5:54am 15 17 mph 1020mb 53f 49f
5:48am 15 18 mph 1019.9mb 53f 49f
5:42am 16 18 mph 1020mb 53f 49f
5:36am 14 17 mph 1020mb 53f 49f
5:30am 14 17 mph 1020mb 53f 49f
5:24am 13 17 mph 1020mb 53f 49f
5:18am 13 17 mph 1019.9mb 53f 49f
5:12am 10 16 mph 1019.8mb 53f 48f
5:06am 11 22 mph 1019.9mb 53f 48f
5:00am 13 17 mph 1019.8mb 53f 49f
4:54am 13 16 mph 1019.4mb 53f 49f
4:48am 14 17 mph 1019.2mb 53f 49f
4:42am 13 15 mph 1019.2mb 53f 50f
4:36am 13 15 mph 1019.2mb 53f 49f
4:30am 10 13 mph 1019.1mb 53f 49f
4:24am 10 13 mph 1019.1mb 53f 49f
4:18am 11 15 mph 1019.1mb 53f 50f
4:12am 11 14 mph 1019mb 53f 50f
4:06am 11 13 mph 1019.1mb 53f 50f
4:00am 10 14 mph 1019.1mb 53f 50f
3:54am 10 13 mph 1019mb 53f 50f
3:48am 11 14 mph 1019mb 53f 50f
3:42am 11 14 mph 1018.9mb 53f 50f
3:36am 10 15 mph 1018.9mb 53f 50f
3:30am 13 14 mph 1018.9mb 53f 50f
3:24am 14 16 mph 1018.7mb 53f 50f
3:18am 13 15 mph 1018.7mb 53f 50f
3:12am 13 16 mph 1018.7mb 53f 51f
3:06am 13 16 mph 1018.7mb 53f 50f
3:00am 14 15 mph 1018.7mb 53f 50f
2:54am 11 14 mph 1018.7mb 53f 51f
2:48am 14 16 mph 1018.7mb 53f 51f
2:42am 13 16 mph 1018.7mb 53f 51f
2:36am 13 17 mph 1018.7mb 53f 51f
2:30am 13 18 mph 1018.7mb 53f 51f
2:24am 14 18 mph 1018.7mb 53f 51f
2:18am 14 17 mph 1018.7mb 53f 51f
2:12am 15 18 mph 1018.7mb 53f 51f
2:06am 15 20 mph 1018.8mb 53f 51f
2:00am 14 17 mph 1018.8mb 53f 51f
1:54am 15 20 mph 1018.8mb 53f 51f
1:48am 13 16 mph 1018.8mb 53f 51f
1:42am 13 16 mph 1018.8mb 53f 51f
1:36am 15 18 mph 1018.8mb 53f 51f
1:30am 13 20 mph 1018.8mb 53f 51f
1:24am 15 20 mph 1018.7mb 53f 51f
1:18am 11 15 mph 1018.7mb 53f 51f
1:12am 11 17 mph 1018.7mb 52f 51f
1:06am 14 17 mph 1018.7mb 52f 51f
1:00am 15 17 mph 1018.6mb 52f 51f
12:54am 11 17 mph 1018.6mb 53f 51f
12:48am 14 21 mph 1018.6mb 52f 51f
12:42am 14 20 mph 1018.5mb 52f 51f
12:36am 16 21 mph 1018.5mb 52f 51f
12:30am 15 20 mph 1018.4mb 52f 51f
12:24am 13 20 mph 1018.4mb 52f 51f
12:18am 13 18 mph 1018.4mb 52f 51f
12:12am 13 16 mph 1018.4mb 52f 51f
12:06am 10 14 mph 1018.4mb 52f 51f
12:00am 10 14 mph 1018.4mb 53f 51f
Wed 04/19 11:54pm 10 14 mph 1018.3mb 53f 51f
11:48pm 10 13 mph 1018.3mb 53f 51f
11:42pm 9 15 mph 1018.3mb 53f 51f
11:36pm 11 20 mph 1018.3mb 53f 51f
11:30pm 15 18 mph 1018.3mb 53f 51f
11:24pm 13 18 mph 1018.3mb 53f 51f
11:18pm 13 16 mph 1018.3mb 53f 51f
11:12pm 11 16 mph 1018.2mb 53f 51f
11:06pm 13 18 mph 1018.2mb 53f 51f
11:00pm 14 17 mph 1018.1mb 53f 51f
10:54pm 16 22 mph 1018.1mb 53f 51f
10:48pm 16 23 mph 1017.9mb 53f -
10:42pm 16 22 mph 1017.9mb 53f -
10:36pm 18 22 mph 1017.8mb 53f -
10:30pm 14 20 mph 1017.8mb 53f 51f
10:24pm 16 21 mph 1017.8mb 53f 51f
10:18pm 16 21 mph 1017.8mb 53f 51f
10:12pm 16 22 mph 1017.8mb 53f 51f
10:06pm 17 21 mph 1017.7mb 53f 51f
10:00pm 16 22 mph 1017.7mb 53f 51f
9:54pm 18 21 mph 1017.6mb 53f 51f
9:48pm 17 22 mph 1017.6mb 53f 51f
9:42pm 14 20 mph 1017.5mb 53f 51f